createdAt,value
2023-05-27T00:01:36.620Z,102757.63
2023-05-27T00:04:04.782Z,102755.03
2023-05-27T00:06:32.864Z,102759.34
2023-05-27T00:09:02.263Z,102748.06
2023-05-27T00:11:30.268Z,102749.81
2023-05-27T00:13:58.408Z,102742.84
2023-05-27T00:16:27.938Z,102747.16
2023-05-27T00:18:56.731Z,102748.91
2023-05-27T00:21:24.656Z,102750.63
2023-05-27T00:23:53.748Z,102750.63
2023-05-27T00:26:23.037Z,102747.13
2023-05-27T00:28:53.539Z,102749.72
2023-05-27T00:31:21.820Z,102748.84
2023-05-27T00:33:49.811Z,102740.16
2023-05-27T00:36:18.216Z,102747.06
2023-05-27T00:38:46.233Z,102743.59
2023-05-27T00:41:14.535Z,102741.00
2023-05-27T00:43:43.912Z,102735.78
2023-05-27T00:46:12.078Z,102748.78
2023-05-27T00:48:40.356Z,102748.78
2023-05-27T00:51:08.607Z,102746.19
2023-05-27T00:53:41.898Z,102745.31
2023-05-27T00:56:09.768Z,102747.88
2023-05-27T00:58:38.020Z,102752.19
2023-05-27T01:01:08.377Z,102753.06
2023-05-27T01:03:36.878Z,102748.72
2023-05-27T01:06:11.100Z,102747.88
2023-05-27T01:08:46.635Z,102756.53
2023-05-27T01:11:14.974Z,102744.38
2023-05-27T01:13:46.118Z,102744.38
2023-05-27T01:16:17.352Z,102740.03
2023-05-27T01:18:47.968Z,102743.44
2023-05-27T01:21:18.930Z,102736.50
2023-05-27T01:23:51.284Z,102738.22
2023-05-27T01:26:19.534Z,102735.59
2023-05-27T01:28:47.800Z,102740.81
2023-05-27T01:31:18.668Z,102727.81
2023-05-27T01:33:56.499Z,102731.25
2023-05-27T01:36:28.955Z,102735.59
2023-05-27T01:38:59.018Z,102736.47
2023-05-27T01:41:27.674Z,102732.13
2023-05-27T01:43:56.041Z,102739.91
2023-05-27T01:46:24.288Z,102739.03
2023-05-27T01:48:52.259Z,102726.91
2023-05-27T01:51:20.463Z,102728.59
2023-05-27T01:53:48.420Z,102728.56
2023-05-27T01:56:17.738Z,102719.94
2023-05-27T01:58:45.918Z,102726.88
2023-05-27T02:01:14.287Z,102725.97
2023-05-27T02:03:42.506Z,102724.25
2023-05-27T02:06:11.278Z,102712.09
2023-05-27T02:08:39.680Z,102712.94
2023-05-27T02:11:07.893Z,102711.22
2023-05-27T02:13:38.503Z,102714.69
2023-05-27T02:16:07.024Z,102710.31
2023-05-27T02:18:36.026Z,102710.31
2023-05-27T02:21:07.108Z,102702.50
2023-05-27T02:23:35.257Z,102706.81
2023-05-27T02:26:03.268Z,102720.69
2023-05-27T02:28:31.264Z,102708.53
2023-05-27T02:31:01.827Z,102710.28
2023-05-27T02:33:29.816Z,102713.72
2023-05-27T02:35:58.156Z,102704.16
2023-05-27T02:38:26.304Z,102709.34
2023-05-27T02:40:54.287Z,102718.88
2023-05-27T02:43:22.671Z,102712.81
2023-05-27T02:45:50.899Z,102712.81
2023-05-27T02:48:20.903Z,102716.28
2023-05-27T02:50:49.227Z,102708.44
2023-05-27T02:53:17.194Z,102714.50
2023-05-27T02:55:45.607Z,102712.75
2023-05-27T02:58:13.826Z,102710.13
2023-05-27T03:00:42.290Z,102698.00
2023-05-27T03:03:10.501Z,102707.50
2023-05-27T03:05:39.917Z,102707.50
2023-05-27T03:08:07.919Z,102699.72
2023-05-27T03:10:37.385Z,102705.78
2023-05-27T03:13:07.615Z,102707.50
2023-05-27T03:15:36.394Z,102703.16
2023-05-27T03:18:04.649Z,102703.16
2023-05-27T03:20:33.349Z,102704.03
2023-05-27T03:23:02.866Z,102707.53
2023-05-27T03:25:31.125Z,102703.16
2023-05-27T03:28:01.661Z,102711.84
2023-05-27T03:30:29.815Z,102707.50
2023-05-27T03:32:59.166Z,102704.03
2023-05-27T03:35:36.554Z,102702.28
2023-05-27T03:38:06.583Z,102701.47
2023-05-27T03:40:35.769Z,102703.19
2023-05-27T03:43:07.761Z,102700.59
2023-05-27T03:45:35.827Z,102696.25
2023-05-27T03:48:03.902Z,102694.53
2023-05-27T03:50:31.921Z,102697.13
2023-05-27T03:52:59.855Z,102703.19
2023-05-27T03:55:30.213Z,102704.94
2023-05-27T03:57:58.538Z,102700.63
2023-05-27T04:00:27.653Z,102693.72
2023-05-27T04:02:57.409Z,102693.72
2023-05-27T04:05:26.354Z,102686.78
2023-05-27T04:07:54.405Z,102696.34
2023-05-27T04:10:22.523Z,102703.28
2023-05-27T04:12:52.056Z,102699.84
2023-05-27T04:15:20.026Z,102696.38
2023-05-27T04:17:49.077Z,102700.72
2023-05-27T04:20:17.553Z,102695.53
2023-05-27T04:22:48.997Z,102695.53
2023-05-27T04:25:19.527Z,102689.50
2023-05-27T04:28:16.605Z,102692.13
2023-05-27T04:30:48.479Z,102691.25
2023-05-27T04:33:36.816Z,102692.13
2023-05-27T04:36:05.883Z,102692.16
2023-05-27T04:38:41.969Z,102698.25
2023-05-27T04:41:10.056Z,102686.09
2023-05-27T04:43:59.398Z,102691.31
2023-05-27T04:46:32.849Z,102689.63
2023-05-27T04:49:01.512Z,102691.38
2023-05-27T04:51:30.236Z,102704.41
2023-05-27T04:53:58.649Z,102691.44
2023-05-27T04:56:28.285Z,102696.63
2023-05-27T04:58:57.787Z,102704.47
2023-05-27T05:01:40.464Z,102701.88
2023-05-27T05:04:15.467Z,102695.81
2023-05-27T05:06:56.876Z,102700.16
2023-05-27T05:09:26.209Z,102695.88
2023-05-27T05:11:54.194Z,102706.28
2023-05-27T05:14:23.544Z,102701.97
2023-05-27T05:16:52.782Z,102707.16
2023-05-27T05:19:20.902Z,102693.25
2023-05-27T05:21:48.869Z,102688.06
2023-05-27T05:24:17.514Z,102668.16
2023-05-27T05:26:47.072Z,102672.53
2023-05-27T05:29:15.894Z,102676.84
2023-05-27T05:31:46.551Z,102663.00
2023-05-27T05:34:16.823Z,102655.19
2023-05-27T05:36:45.289Z,102661.28
2023-05-27T05:39:13.397Z,102676.03
2023-05-27T05:41:48.900Z,102668.25
2023-05-27T05:44:19.774Z,102668.25
2023-05-27T05:46:50.829Z,102663.91
2023-05-27T05:49:20.388Z,102649.16
2023-05-27T05:51:48.817Z,102647.44
2023-05-27T05:54:16.896Z,102654.38
2023-05-27T05:56:49.706Z,102662.19
2023-05-27T05:59:17.767Z,102653.50
2023-05-27T06:01:45.830Z,102662.19
2023-05-27T06:04:15.284Z,102665.66
2023-05-27T06:06:45.983Z,102675.19
2023-05-27T06:09:17.051Z,102682.16
2023-05-27T06:11:45.164Z,102684.75
2023-05-27T06:14:13.709Z,102686.47
2023-05-27T06:16:41.828Z,102702.13
2023-05-27T06:19:10.838Z,102699.50
2023-05-27T06:21:40.841Z,102705.59
2023-05-27T06:24:27.442Z,102713.41
2023-05-27T06:27:18.586Z,102720.28
2023-05-27T06:29:48.159Z,102726.25
2023-05-27T06:32:21.825Z,102735.66
2023-05-27T06:34:50.024Z,102754.69
2023-05-27T06:37:19.712Z,102775.53
2023-05-27T06:39:47.723Z,102793.00
2023-05-27T06:42:16.184Z,102788.59
2023-05-27T06:45:04.559Z,102793.59
2023-05-27T06:47:34.454Z,102803.13
2023-05-27T06:50:02.764Z,102804.09
2023-05-27T06:52:32.249Z,102814.72
2023-05-27T06:55:13.695Z,102810.41
2023-05-27T06:58:00.561Z,102808.41
2023-05-27T07:00:38.155Z,102813.53
2023-05-27T07:03:35.545Z,102831.97
2023-05-27T07:06:06.407Z,102832.75
2023-05-27T07:08:43.375Z,102831.06
2023-05-27T07:11:20.629Z,102842.38
2023-05-27T07:13:49.760Z,102850.16
2023-05-27T07:16:21.950Z,102833.38
2023-05-27T07:18:51.493Z,102842.84
2023-05-27T07:21:20.188Z,102839.25
2023-05-27T07:23:50.056Z,102845.97
2023-05-27T07:26:28.128Z,102838.97
2023-05-27T07:28:56.519Z,102840.66
2023-05-27T07:31:34.526Z,102839.41
2023-05-27T07:34:11.240Z,102842.41
2023-05-27T07:36:39.334Z,102844.34
2023-05-27T07:39:08.756Z,102838.56
2023-05-27T07:41:37.038Z,102825.91
2023-05-27T07:44:06.192Z,102829.81
2023-05-27T07:46:35.216Z,102829.66
2023-05-27T07:49:03.567Z,102828.41
2023-05-27T07:51:33.898Z,102819.25
2023-05-27T07:54:02.959Z,102818.19
2023-05-27T07:56:35.353Z,102829.06
2023-05-27T07:59:03.626Z,102831.69
2023-05-27T08:01:33.745Z,102826.81
2023-05-27T08:04:08.871Z,102824.81
2023-05-27T08:06:59.656Z,102826.53
2023-05-27T08:09:49.155Z,102826.16
2023-05-27T08:12:48.539Z,102817.59
2023-05-27T08:15:28.116Z,102817.47
2023-05-27T08:18:06.912Z,102808.50
2023-05-27T08:20:45.126Z,102808.69
2023-05-27T08:23:23.899Z,102810.84
2023-05-27T08:25:57.372Z,102806.44
2023-05-27T08:28:26.751Z,102797.59
2023-05-27T08:31:03.187Z,102809.03
2023-05-27T08:33:40.266Z,102808.56
2023-05-27T08:36:08.824Z,102797.28
2023-05-27T08:38:37.086Z,102801.72
2023-05-27T08:41:21.264Z,102797.06
2023-05-27T08:43:53.805Z,102795.19
2023-05-27T08:46:25.168Z,102792.38
2023-05-27T08:48:56.713Z,102787.94
2023-05-27T08:51:25.801Z,102789.91
2023-05-27T08:53:53.830Z,102793.56
2023-05-27T08:56:23.393Z,102792.19
2023-05-27T08:58:56.169Z,102786.16
2023-05-27T09:01:24.306Z,102799.91
2023-05-27T09:03:52.971Z,102788.94
2023-05-27T09:06:21.311Z,102797.16
2023-05-27T09:08:50.802Z,102785.78
2023-05-27T09:11:26.669Z,102782.41
2023-05-27T09:13:57.655Z,102775.09
2023-05-27T09:16:25.679Z,102783.06
2023-05-27T09:18:53.759Z,102777.50
2023-05-27T09:21:21.731Z,102780.38
2023-05-27T09:23:49.694Z,102773.53
2023-05-27T09:26:17.600Z,102773.97
2023-05-27T09:28:45.525Z,102773.13
2023-05-27T09:31:14.888Z,102767.69
2023-05-27T09:33:42.838Z,102777.84
2023-05-27T09:36:11.068Z,102771.25
2023-05-27T09:38:39.122Z,102777.81
2023-05-27T09:41:07.365Z,102758.94
2023-05-27T09:43:35.707Z,102769.34
2023-05-27T09:46:15.599Z,102770.13
2023-05-27T09:48:43.595Z,102751.53
2023-05-27T09:51:11.868Z,102764.13
2023-05-27T09:53:40.166Z,102761.16
2023-05-27T09:56:08.371Z,102750.44
2023-05-27T09:58:36.790Z,102746.50
2023-05-27T10:01:05.795Z,102746.41
2023-05-27T10:03:35.465Z,102741.69
2023-05-27T10:06:04.287Z,102746.06
2023-05-27T10:08:32.380Z,102750.50
2023-05-27T10:11:00.869Z,102751.09
2023-05-27T10:13:29.480Z,102742.06
2023-05-27T10:15:57.697Z,102738.16
2023-05-27T10:18:26.221Z,102742.22
2023-05-27T10:20:56.010Z,102747.06
2023-05-27T10:23:27.666Z,102740.66
2023-05-27T10:25:57.990Z,102729.84
2023-05-27T10:28:27.556Z,102728.88
2023-05-27T10:30:56.210Z,102739.44
2023-05-27T10:33:31.658Z,102731.59
2023-05-27T10:36:07.104Z,102722.84
2023-05-27T10:38:35.457Z,102736.19
2023-05-27T10:41:04.014Z,102731.41
2023-05-27T10:43:32.520Z,102738.34
2023-05-27T10:46:04.540Z,102717.81
2023-05-27T10:48:34.211Z,102735.28
2023-05-27T10:51:02.488Z,102735.44
2023-05-27T10:53:31.920Z,102723.97
2023-05-27T10:56:00.876Z,102715.22
2023-05-27T10:58:29.377Z,102724.66
2023-05-27T11:00:58.988Z,102720.53
2023-05-27T11:03:28.793Z,102717.75
2023-05-27T11:06:02.422Z,102721.38
2023-05-27T11:08:32.372Z,102712.50
2023-05-27T11:11:01.420Z,102720.00
2023-05-27T11:13:34.053Z,102705.38
2023-05-27T11:16:02.502Z,102704.44
2023-05-27T11:18:40.824Z,102709.06
2023-05-27T11:21:09.391Z,102708.91
2023-05-27T11:23:41.024Z,102693.97
2023-05-27T11:26:16.468Z,102711.03
2023-05-27T11:28:49.141Z,102699.00
2023-05-27T11:31:17.178Z,102691.03
2023-05-27T11:33:46.067Z,102692.09
2023-05-27T11:36:15.059Z,102700.88
2023-05-27T11:38:52.641Z,102682.84
2023-05-27T11:41:21.292Z,102678.44
2023-05-27T11:43:53.593Z,102685.06
2023-05-27T11:46:23.018Z,102675.63
2023-05-27T11:48:51.165Z,102679.97
2023-05-27T11:51:19.064Z,102679.03
2023-05-27T11:53:47.845Z,102669.91
2023-05-27T11:56:17.443Z,102662.41
2023-05-27T11:58:45.357Z,102660.47
2023-05-27T12:01:13.347Z,102651.22
2023-05-27T12:03:42.834Z,102658.91
2023-05-27T12:06:12.201Z,102662.59
2023-05-27T12:08:40.396Z,102656.59
2023-05-27T12:11:08.392Z,102650.03
2023-05-27T12:13:37.850Z,102654.59
2023-05-27T12:16:06.294Z,102645.03
2023-05-27T12:18:34.328Z,102641.75
2023-05-27T12:21:02.228Z,102655.16
2023-05-27T12:23:30.290Z,102641.97
2023-05-27T12:25:58.216Z,102647.00
2023-05-27T12:28:27.224Z,102632.78
2023-05-27T12:30:57.429Z,102631.38
2023-05-27T12:33:25.807Z,102627.03
2023-05-27T12:35:53.786Z,102635.44
2023-05-27T12:38:21.755Z,102627.06
2023-05-27T12:40:50.437Z,102634.31
2023-05-27T12:43:19.609Z,102626.25
2023-05-27T12:45:47.953Z,102621.41
2023-05-27T12:48:18.811Z,102614.78
2023-05-27T12:50:46.923Z,102606.78
2023-05-27T12:53:14.789Z,102606.59
2023-05-27T12:55:44.477Z,102613.94
2023-05-27T12:58:12.563Z,102613.44
2023-05-27T13:00:40.484Z,102607.91
2023-05-27T13:03:09.642Z,102595.59
2023-05-27T13:05:40.938Z,102600.22
2023-05-27T13:08:09.024Z,102588.78
2023-05-27T13:10:36.986Z,102588.78
2023-05-27T13:13:04.884Z,102592.47
2023-05-27T13:15:32.834Z,102591.72
2023-05-27T13:18:01.219Z,102590.13
2023-05-27T13:20:31.119Z,102595.16
2023-05-27T13:23:02.372Z,102585.72
2023-05-27T13:25:30.758Z,102584.81
2023-05-27T13:27:58.951Z,102579.47
2023-05-27T13:30:27.729Z,102581.41
2023-05-27T13:32:56.236Z,102573.84
2023-05-27T13:35:24.338Z,102570.31
2023-05-27T13:37:52.278Z,102569.16
2023-05-27T13:40:21.810Z,102574.88
2023-05-27T13:42:49.777Z,102563.84
2023-05-27T13:45:17.945Z,102558.16
2023-05-27T13:47:46.765Z,102561.25
2023-05-27T13:50:14.834Z,102559.25
2023-05-27T13:52:42.855Z,102552.66
2023-05-27T13:55:11.360Z,102539.81
2023-05-27T13:57:41.217Z,102541.75
2023-05-27T14:00:10.159Z,102551.88
2023-05-27T14:02:39.227Z,102534.53
2023-05-27T14:05:08.744Z,102530.06
2023-05-27T14:07:42.490Z,102534.66
2023-05-27T14:10:11.393Z,102536.41
2023-05-27T14:12:41.784Z,102530.03
2023-05-27T14:15:10.471Z,102523.66
2023-05-27T14:17:38.526Z,102523.75
2023-05-27T14:20:11.611Z,102519.09
2023-05-27T14:22:39.990Z,102504.47
2023-05-27T14:25:08.805Z,102505.44
2023-05-27T14:27:36.790Z,102504.28
2023-05-27T14:30:07.234Z,102510.75
2023-05-27T14:32:35.251Z,102508.34
2023-05-27T14:35:03.154Z,102499.72
2023-05-27T14:37:31.120Z,102491.34
2023-05-27T14:39:58.986Z,102501.00
2023-05-27T14:42:26.934Z,102502.50
2023-05-27T14:44:54.886Z,102492.09
2023-05-27T14:47:24.484Z,102494.13
2023-05-27T14:49:52.420Z,102495.44
2023-05-27T14:52:20.298Z,102493.84
2023-05-27T14:54:48.227Z,102499.06
2023-05-27T14:57:16.743Z,102504.19
2023-05-27T14:59:44.753Z,102497.00
2023-05-27T15:02:12.846Z,102492.47
2023-05-27T15:04:42.149Z,102497.59
2023-05-27T15:07:10.098Z,102492.56
2023-05-27T15:09:38.413Z,102496.03
2023-05-27T15:12:08.045Z,102485.00
2023-05-27T15:14:36.072Z,102482.47
2023-05-27T15:17:05.955Z,102483.75
2023-05-27T15:19:34.007Z,102484.34
2023-05-27T15:22:03.258Z,102483.50
2023-05-27T15:24:31.288Z,102481.06
2023-05-27T15:26:59.897Z,102482.31
2023-05-27T15:29:28.250Z,102476.34
2023-05-27T15:31:56.267Z,102474.66
2023-05-27T15:34:25.045Z,102470.94
2023-05-27T15:36:55.205Z,102476.56
2023-05-27T15:39:24.539Z,102474.00
2023-05-27T15:41:52.471Z,102472.69
2023-05-27T15:44:20.579Z,102471.28
2023-05-27T15:46:48.446Z,102459.88
2023-05-27T15:49:16.783Z,102466.53
2023-05-27T15:51:45.365Z,102456.91
2023-05-27T15:54:14.360Z,102461.09
2023-05-27T15:56:45.325Z,102454.00
2023-05-27T15:59:13.681Z,102452.44
2023-05-27T16:01:41.618Z,102449.94
2023-05-27T16:04:09.879Z,102444.59
2023-05-27T16:06:37.953Z,102439.59
2023-05-27T16:09:06.475Z,102438.44
2023-05-27T16:11:34.409Z,102435.25
2023-05-27T16:14:03.754Z,102434.84
2023-05-27T16:16:31.805Z,102428.63
2023-05-27T16:18:59.887Z,102428.06
2023-05-27T16:21:27.951Z,102425.94
2023-05-27T16:24:06.370Z,102418.91
2023-05-27T16:26:35.195Z,102419.34
2023-05-27T16:29:04.660Z,102415.09
2023-05-27T16:31:32.749Z,102419.34
2023-05-27T16:34:00.860Z,102422.97
2023-05-27T16:36:29.114Z,102417.81
2023-05-27T16:38:57.113Z,102410.91
2023-05-27T16:41:25.428Z,102410.03
2023-05-27T16:43:53.374Z,102416.47
2023-05-27T16:46:23.006Z,102420.13
2023-05-27T16:48:50.943Z,102405.69
2023-05-27T16:51:18.863Z,102404.16
2023-05-27T16:53:47.155Z,102404.16
2023-05-27T16:56:15.131Z,102402.53
2023-05-27T16:58:43.105Z,102390.28
2023-05-27T17:01:11.369Z,102397.47
2023-05-27T17:03:40.717Z,102390.66
2023-05-27T17:06:08.803Z,102391.63
2023-05-27T17:08:36.896Z,102391.53
2023-05-27T17:11:05.297Z,102386.59
2023-05-27T17:13:33.240Z,102388.56
2023-05-27T17:16:02.045Z,102390.28
2023-05-27T17:18:30.045Z,102379.09
2023-05-27T17:20:59.439Z,102389.59
2023-05-27T17:23:27.345Z,102389.28
2023-05-27T17:25:55.308Z,102387.84
2023-05-27T17:28:23.363Z,102387.97
2023-05-27T17:30:51.631Z,102382.97
2023-05-27T17:33:19.749Z,102381.53
2023-05-27T17:35:48.872Z,102384.22
2023-05-27T17:38:18.270Z,102376.41
2023-05-27T17:40:46.250Z,102373.28
2023-05-27T17:43:14.488Z,102372.41
2023-05-27T17:45:42.633Z,102373.13
2023-05-27T17:48:13.195Z,102367.88
2023-05-27T17:50:41.442Z,102366.94
2023-05-27T17:53:09.366Z,102375.78
2023-05-27T17:55:38.634Z,102380.16
2023-05-27T17:58:06.740Z,102375.69
2023-05-27T18:00:34.797Z,102371.34
2023-05-27T18:03:03.209Z,102371.44
2023-05-27T18:05:31.313Z,102373.31
2023-05-27T18:07:59.626Z,102371.84
2023-05-27T18:10:28.996Z,102370.75
2023-05-27T18:12:58.730Z,102364.59
2023-05-27T18:15:26.661Z,102369.97
2023-05-27T18:17:54.862Z,102372.50
2023-05-27T18:20:23.238Z,102364.91
2023-05-27T18:22:51.386Z,102365.78
2023-05-27T18:25:19.600Z,102364.00
2023-05-27T18:27:47.620Z,102370.34
2023-05-27T18:30:17.145Z,102365.88
2023-05-27T18:32:46.633Z,102360.88
2023-05-27T18:35:29.874Z,102361.97
2023-05-27T18:37:59.430Z,102356.69
2023-05-27T18:40:29.277Z,102360.13
2023-05-27T18:42:57.304Z,102355.00
2023-05-27T18:45:48.093Z,102357.72
2023-05-27T18:48:16.169Z,102353.47
2023-05-27T18:50:44.212Z,102344.75
2023-05-27T18:53:12.189Z,102350.09
2023-05-27T18:55:40.092Z,102352.81
2023-05-27T18:58:08.106Z,102355.56
2023-05-27T19:00:37.730Z,102358.94
2023-05-27T19:03:07.140Z,102355.50
2023-05-27T19:05:35.441Z,102354.63
2023-05-27T19:08:03.952Z,102359.13
2023-05-27T19:10:32.270Z,102351.28
2023-05-27T19:13:01.534Z,102357.41
2023-05-27T19:15:30.618Z,102348.81
2023-05-27T19:18:00.300Z,102348.00
2023-05-27T19:20:28.658Z,102342.84
2023-05-27T19:22:56.688Z,102365.56
2023-05-27T19:25:24.639Z,102363.94
2023-05-27T19:27:52.590Z,102357.97
2023-05-27T19:30:21.969Z,102351.06
2023-05-27T19:32:51.397Z,102351.06
2023-05-27T19:35:21.042Z,102349.34
2023-05-27T19:37:49.244Z,102352.84
2023-05-27T19:40:17.231Z,102345.88
2023-05-27T19:42:45.177Z,102345.88
2023-05-27T19:45:13.151Z,102343.31
2023-05-27T19:47:41.100Z,102347.72
2023-05-27T19:50:10.529Z,102339.84
2023-05-27T19:52:40.246Z,102343.44
2023-05-27T19:55:08.970Z,102341.72
2023-05-27T19:57:36.929Z,102339.25
2023-05-27T20:00:06.932Z,102339.28
2023-05-27T20:02:34.948Z,102339.28
2023-05-27T20:05:02.960Z,102338.47
2023-05-27T20:07:31.722Z,102348.09
2023-05-27T20:10:01.027Z,102341.09
2023-05-27T20:12:41.713Z,102341.13
2023-05-27T20:15:11.673Z,102342.94
2023-05-27T20:17:39.992Z,102340.38
2023-05-27T20:20:09.971Z,102328.25
2023-05-27T20:22:38.161Z,102340.50
2023-05-27T20:25:08.691Z,102333.53
2023-05-27T20:27:36.893Z,102331.84
2023-05-27T20:30:07.071Z,102332.78
2023-05-27T20:32:35.091Z,102333.69
2023-05-27T20:35:03.055Z,102330.31
2023-05-27T20:37:31.451Z,102339.94
2023-05-27T20:39:59.371Z,102329.50
2023-05-27T20:42:29.006Z,102331.28
2023-05-27T20:44:57.051Z,102333.09
2023-05-27T20:47:25.096Z,102331.44
2023-05-27T20:49:53.027Z,102319.25
2023-05-27T20:52:20.987Z,102325.44
2023-05-27T20:54:49.200Z,102313.31
2023-05-27T20:57:17.183Z,102315.06
2023-05-27T20:59:46.488Z,102314.25
2023-05-27T21:02:15.604Z,102311.63
2023-05-27T21:04:43.936Z,102307.34
2023-05-27T21:07:12.106Z,102307.34
2023-05-27T21:09:41.136Z,102306.47
2023-05-27T21:12:10.534Z,102304.78
2023-05-27T21:14:38.636Z,102305.75
2023-05-27T21:17:08.012Z,102296.19
2023-05-27T21:19:35.932Z,102294.47
2023-05-27T21:22:04.136Z,102296.22
2023-05-27T21:24:32.082Z,102301.47
2023-05-27T21:27:00.058Z,102291.06
2023-05-27T21:29:28.450Z,102296.34
2023-05-27T21:31:56.371Z,102297.25
2023-05-27T21:34:25.854Z,102299.91
2023-05-27T21:36:53.853Z,102299.97
2023-05-27T21:39:22.028Z,102293.06
2023-05-27T21:41:49.968Z,102294.81
2023-05-27T21:44:17.910Z,102287.91
2023-05-27T21:46:45.839Z,102299.38
2023-05-27T21:49:13.780Z,102286.38
2023-05-27T21:51:43.037Z,102290.69
2023-05-27T21:54:11.060Z,102279.38
2023-05-27T21:56:40.339Z,102290.72
2023-05-27T21:59:08.377Z,102283.78
2023-05-27T22:01:36.520Z,102284.63
2023-05-27T22:04:04.510Z,102276.81
2023-05-27T22:06:34.104Z,102269.91
2023-05-27T22:09:03.482Z,102267.31
2023-05-27T22:11:31.423Z,102273.47
2023-05-27T22:13:59.416Z,102275.19
2023-05-27T22:16:27.458Z,102265.69
2023-05-27T22:18:55.521Z,102262.22
2023-05-27T22:21:29.379Z,102259.63
2023-05-27T22:23:57.936Z,102257.03
2023-05-27T22:26:27.744Z,102255.31
2023-05-27T22:28:55.652Z,102252.03
2023-05-27T22:31:23.853Z,102252.03
2023-05-27T22:33:51.905Z,102250.25
2023-05-27T22:36:19.852Z,102249.41
2023-05-27T22:38:47.804Z,102248.72
2023-05-27T22:41:16.028Z,102237.41
2023-05-27T22:43:45.406Z,102238.22
2023-05-27T22:46:17.428Z,102240.03
2023-05-27T22:48:45.996Z,102243.56
2023-05-27T22:51:15.824Z,102242.69
2023-05-27T22:53:44.395Z,102237.47
2023-05-27T22:56:13.138Z,102226.16
2023-05-27T22:58:41.868Z,102224.47
2023-05-27T23:01:11.121Z,102225.50
2023-05-27T23:03:39.247Z,102222.81
2023-05-27T23:06:08.410Z,102223.75
2023-05-27T23:08:36.478Z,102238.59
2023-05-27T23:11:04.487Z,102234.28
2023-05-27T23:13:32.500Z,102238.59
2023-05-27T23:16:07.772Z,102222.88
2023-05-27T23:18:37.274Z,102228.91
2023-05-27T23:21:05.881Z,102226.31
2023-05-27T23:23:33.848Z,102222.94
2023-05-27T23:26:02.104Z,102222.38
2023-05-27T23:28:30.058Z,102211.25
2023-05-27T23:30:58.044Z,102207.84
2023-05-27T23:33:26.019Z,102208.78
2023-05-27T23:35:55.552Z,102194.00
2023-05-27T23:38:23.711Z,102188.91
2023-05-27T23:40:51.978Z,102176.78
2023-05-27T23:43:19.873Z,102170.69
2023-05-27T23:45:47.884Z,102171.63
2023-05-27T23:48:15.809Z,102183.75
2023-05-27T23:50:43.796Z,102169.00
2023-05-27T23:53:13.180Z,102171.53
2023-05-27T23:55:41.199Z,102175.91
2023-05-27T23:58:09.111Z,102174.22
